TimeHST,TemperatureF,Dew PointF,Humidity,Sea Level PressureIn,VisibilityMPH,Wind Direction,Wind SpeedMPH,Gust SpeedMPH,PrecipitationIn,Events,Conditions,WindDirDegrees,DateUTC
12:54 AM,71.1,66.9,87,29.99,10.0,NNE,5.8,-,N/A,,Clear,30,2014-01-01 10:54:00
1:54 AM,70.0,68.0,93,29.97,10.0,ENE,5.8,-,N/A,,Clear,60,2014-01-01 11:54:00
2:54 AM,66.0,64.0,93,29.96,10.0,Calm,Calm,-,N/A,,Clear,0,2014-01-01 12:54:00
3:54 AM,68.0,66.0,93,29.95,10.0,North,5.8,-,N/A,,Clear,10,2014-01-01 13:54:00
4:54 AM,66.0,64.9,96,29.95,10.0,Calm,Calm,-,N/A,,Clear,0,2014-01-01 14:54:00
5:54 AM,61.0,61.0,100,29.96,10.0,Calm,Calm,-,N/A,,Clear,0,2014-01-01 15:54:00
6:54 AM,61.0,61.0,100,29.98,10.0,North,4.6,-,N/A,,Partly Cloudy,10,2014-01-01 16:54:00
7:54 AM,66.9,64.0,90,29.99,10.0,ENE,4.6,-,N/A,,Clear,70,2014-01-01 17:54:00
8:54 AM,73.9,64.9,73,30.00,10.0,Calm,Calm,-,N/A,,Clear,0,2014-01-01 18:54:00
9:54 AM,77.0,64.9,66,30.00,10.0,SSW,3.5,-,N/A,,Clear,200,2014-01-01 19:54:00
10:54 AM,78.1,64.9,64,30.00,10.0,North,4.6,-,N/A,,Partly Cloudy,350,2014-01-01 20:54:00
11:54 AM,78.1,64.9,64,29.97,10.0,Calm,Calm,-,N/A,,Partly Cloudy,0,2014-01-01 21:54:00
12:54 PM,82.0,64.9,56,29.93,10.0,Variable,3.5,-,N/A,,Clear,0,2014-01-01 22:54:00
1:54 PM,80.1,64.0,58,29.90,10.0,Calm,Calm,-,N/A,,Partly Cloudy,0,2014-01-01 23:54:00
2:54 PM,78.1,66.9,68,29.89,10.0,SSE,4.6,-,N/A,,Scattered Clouds,160,2014-01-02 00:54:00
3:54 PM,78.1,68.0,71,29.89,10.0,South,6.9,-,N/A,,Mostly Cloudy,170,2014-01-02 01:54:00
4:54 PM,75.9,69.1,79,29.91,10.0,SSE,9.2,-,N/A,,Partly Cloudy,160,2014-01-02 02:54:00
5:54 PM,73.9,70.0,87,29.93,10.0,SSE,4.6,-,0.01,,Clear,150,2014-01-02 03:54:00
6:54 PM,73.0,70.0,90,29.95,10.0,Calm,Calm,-,N/A,,Clear,0,2014-01-02 04:54:00
7:54 PM,66.9,66.0,97,29.96,10.0,Calm,Calm,-,N/A,,Clear,0,2014-01-02 05:54:00
8:54 PM,69.1,68.0,96,29.95,10.0,ENE,4.6,-,N/A,,Clear,70,2014-01-02 06:54:00
9:54 PM,69.1,66.9,93,29.96,10.0,ENE,5.8,-,N/A,,Clear,70,2014-01-02 07:54:00
10:54 PM,69.1,68.0,96,29.95,10.0,East,3.5,-,N/A,,Mostly Cloudy,100,2014-01-02 08:54:00
11:54 PM,71.1,68.0,90,29.93,10.0,East,5.8,-,N/A,,Mostly Cloudy,100,2014-01-02 09:54:00